createdAt,value
2022-08-16T00:39:27.233Z,24.47
2022-08-16T00:42:29.993Z,17.07
2022-08-16T00:45:58.481Z,17.17
2022-08-16T00:48:52.260Z,18.13
2022-08-16T00:51:46.311Z,18.30
2022-08-16T00:54:50.896Z,16.17
2022-08-16T00:57:58.539Z,16.40
2022-08-16T01:00:54.057Z,21.73
2022-08-16T01:04:29.372Z,20.48
2022-08-16T01:07:18.709Z,20.63
2022-08-16T01:10:16.109Z,20.17
2022-08-16T01:13:15.266Z,18.25
2022-08-16T01:16:19.858Z,22.73
2022-08-16T01:19:36.057Z,19.37
2022-08-16T01:22:52.228Z,19.50
2022-08-16T01:28:55.444Z,17.73
2022-08-16T01:31:43.460Z,20.10
2022-08-16T01:34:31.699Z,19.93
2022-08-16T01:37:53.104Z,19.63
2022-08-16T01:40:44.546Z,20.43
2022-08-16T01:43:40.631Z,21.07
2022-08-16T01:51:07.971Z,23.87
2022-08-16T01:52:55.227Z,23.10
2022-08-16T01:55:54.175Z,21.33
2022-08-16T02:02:22.180Z,22.67
2022-08-16T02:05:23.620Z,20.43
2022-08-16T02:08:33.739Z,25.90
2022-08-16T02:11:24.935Z,26.30
2022-08-16T02:14:38.276Z,25.23
2022-08-16T02:17:28.416Z,29.48
2022-08-16T02:20:35.657Z,26.20
2022-08-16T02:26:19.003Z,26.63
2022-08-16T02:29:07.216Z,26.03
2022-08-16T02:32:51.314Z,24.80
2022-08-16T02:35:53.724Z,29.90
2022-08-16T02:38:49.284Z,26.57
2022-08-16T02:41:41.495Z,28.37
2022-08-16T02:44:42.369Z,27.87
2022-08-16T02:47:29.996Z,26.43
2022-08-16T02:50:54.663Z,25.30
2022-08-16T02:53:49.604Z,28.83
2022-08-16T02:56:48.028Z,28.90
2022-08-16T03:02:56.084Z,24.10
2022-08-16T03:05:59.684Z,33.17
2022-08-16T03:08:56.435Z,26.40
2022-08-16T03:11:49.626Z,30.23
2022-08-16T03:14:41.014Z,30.10
2022-08-16T03:17:33.274Z,28.57
2022-08-16T03:20:32.434Z,28.93
2022-08-16T03:23:35.523Z,30.73
2022-08-16T03:26:31.921Z,25.47
2022-08-16T03:29:32.774Z,31.87
2022-08-16T03:32:23.257Z,31.87
2022-08-16T03:35:14.156Z,34.13
2022-08-16T03:38:32.973Z,35.83
2022-08-16T03:41:29.323Z,31.03
2022-08-16T03:44:43.879Z,34.40
2022-08-16T03:47:42.609Z,34.27
2022-08-16T03:50:38.018Z,35.60
2022-08-16T03:53:37.994Z,34.37
2022-08-16T04:02:48.648Z,32.03
2022-08-16T04:08:53.422Z,38.23
2022-08-16T04:11:42.962Z,35.60
2022-08-16T04:14:38.395Z,40.10
2022-08-16T04:17:42.518Z,40.63
2022-08-16T04:20:33.867Z,37.53
2022-08-16T04:23:34.901Z,39.80
2022-08-16T04:26:30.949Z,40.22
2022-08-16T04:29:27.243Z,43.40
2022-08-16T04:32:35.610Z,39.53
2022-08-16T04:35:24.322Z,39.93
2022-08-16T04:38:20.946Z,41.40
2022-08-16T04:41:09.218Z,36.77
2022-08-16T04:44:00.432Z,37.93
2022-08-16T04:47:00.874Z,35.43
2022-08-16T04:49:53.977Z,41.87
2022-08-16T04:52:46.959Z,41.43
2022-08-16T04:55:43.334Z,37.33
2022-08-16T04:58:41.367Z,30.70
2022-08-16T05:01:58.991Z,36.00
2022-08-16T05:04:52.046Z,34.00
2022-08-16T05:07:57.713Z,34.67
2022-08-16T05:14:06.722Z,37.23
2022-08-16T05:16:59.589Z,45.37
2022-08-16T05:19:57.385Z,42.97
2022-08-16T05:22:53.503Z,37.63
2022-08-16T05:32:32.363Z,30.08
2022-08-16T05:35:30.469Z,38.33
2022-08-16T05:38:32.744Z,37.57
2022-08-16T05:41:28.643Z,37.20
2022-08-16T05:44:24.850Z,39.53
2022-08-16T05:47:15.231Z,33.97
2022-08-16T05:50:19.809Z,40.60
2022-08-16T05:53:24.191Z,41.88
2022-08-16T05:56:19.244Z,36.47
2022-08-16T05:59:09.765Z,37.87
2022-08-16T06:02:15.437Z,42.10
2022-08-16T06:05:07.863Z,42.50
2022-08-16T06:08:05.204Z,41.43
2022-08-16T06:11:11.111Z,40.25
2022-08-16T06:14:05.392Z,39.30
2022-08-16T06:16:55.954Z,37.73
2022-08-16T06:19:53.146Z,36.70
2022-08-16T06:22:44.672Z,40.00
2022-08-16T06:25:39.632Z,40.20
2022-08-16T06:28:35.937Z,41.03
2022-08-16T06:31:26.909Z,42.03
2022-08-16T06:34:54.850Z,35.87
2022-08-16T06:37:26.078Z,42.37
2022-08-16T06:40:37.776Z,44.43
2022-08-16T06:43:27.336Z,42.47
2022-08-16T06:46:37.826Z,54.20
2022-08-16T06:49:30.209Z,42.40
2022-08-16T06:52:58.322Z,39.00
2022-08-16T06:55:38.386Z,45.43
2022-08-16T06:58:40.096Z,47.53
2022-08-16T07:01:46.239Z,43.87
2022-08-16T07:04:39.150Z,46.27
2022-08-16T07:07:33.860Z,40.70
2022-08-16T07:10:26.730Z,44.73
2022-08-16T07:13:19.801Z,40.47
2022-08-16T07:16:27.814Z,40.53
2022-08-16T07:20:02.548Z,40.20
2022-08-16T07:23:13.070Z,42.60
2022-08-16T07:29:05.895Z,37.20
2022-08-16T07:31:57.584Z,49.97
2022-08-16T07:35:00.453Z,47.73
2022-08-16T07:37:49.963Z,44.97
2022-08-16T07:41:09.620Z,40.25
2022-08-16T07:44:15.596Z,41.88
2022-08-16T07:47:17.679Z,38.97
2022-08-16T07:50:54.925Z,44.42
2022-08-16T07:53:25.463Z,41.90
2022-08-16T07:56:33.967Z,38.55
2022-08-16T07:59:26.263Z,38.72
2022-08-16T08:02:33.566Z,42.92
2022-08-16T08:05:36.929Z,35.97
2022-08-16T08:08:49.523Z,40.42
2022-08-16T08:11:37.830Z,34.53
2022-08-16T08:14:29.931Z,37.45
2022-08-16T08:17:18.812Z,35.72
2022-08-16T08:20:20.845Z,38.88
2022-08-16T08:23:24.702Z,36.47
2022-08-16T08:26:17.788Z,32.78
2022-08-16T08:32:58.727Z,33.33
2022-08-16T08:35:56.088Z,34.20
2022-08-16T08:38:47.801Z,39.67
2022-08-16T08:41:35.357Z,40.78
2022-08-16T08:47:31.390Z,37.60
2022-08-16T08:50:31.592Z,43.38
2022-08-16T08:53:30.558Z,40.00
2022-08-16T08:56:23.397Z,42.25
2022-08-16T08:59:20.582Z,39.83
2022-08-16T09:02:20.470Z,34.37
2022-08-16T09:05:17.711Z,42.63
2022-08-16T09:08:08.996Z,34.58
2022-08-16T09:11:08.906Z,32.42
2022-08-16T09:17:11.395Z,32.65
2022-08-16T09:20:23.406Z,40.38
2022-08-16T09:23:24.812Z,41.35
2022-08-16T09:26:45.362Z,33.33
2022-08-16T09:29:44.353Z,33.47
2022-08-16T09:32:36.940Z,29.08
2022-08-16T09:35:26.970Z,33.60
2022-08-16T09:38:32.443Z,36.78
2022-08-16T09:41:23.157Z,30.13
2022-08-16T09:45:09.424Z,29.83
2022-08-16T09:47:28.908Z,29.30
2022-08-16T09:50:39.768Z,23.48
2022-08-16T09:53:32.544Z,35.65
2022-08-16T09:56:34.906Z,32.30
2022-08-16T09:59:38.863Z,25.05
2022-08-16T10:05:53.390Z,27.83
2022-08-16T10:09:05.884Z,33.83
2022-08-16T10:12:19.794Z,27.10
2022-08-16T10:15:09.025Z,24.45
2022-08-16T10:18:56.423Z,31.95
2022-08-16T10:21:36.201Z,24.52
2022-08-16T10:24:35.742Z,22.23
2022-08-16T10:27:47.254Z,22.10
2022-08-16T10:30:45.378Z,21.60
2022-08-16T10:33:40.507Z,15.80
2022-08-16T10:36:39.388Z,16.23
2022-08-16T10:42:57.124Z,25.40
2022-08-16T10:46:01.225Z,30.05
2022-08-16T10:48:50.417Z,25.67
2022-08-16T10:52:01.059Z,23.75
2022-08-16T10:54:58.816Z,22.85
2022-08-16T10:57:53.199Z,18.85
2022-08-16T11:00:41.110Z,19.55
2022-08-16T11:03:42.833Z,19.38
2022-08-16T11:06:34.797Z,17.27
2022-08-16T11:09:28.733Z,23.83
2022-08-16T11:12:33.794Z,21.95
2022-08-16T11:15:54.577Z,17.92
2022-08-16T11:19:03.589Z,22.50
2022-08-16T11:22:39.707Z,19.08
2022-08-16T11:32:02.612Z,15.13
2022-08-16T11:35:13.300Z,25.52
2022-08-16T11:38:46.201Z,21.73
2022-08-16T11:41:15.478Z,22.70
2022-08-16T11:44:13.672Z,19.80
2022-08-16T11:47:10.192Z,23.05
2022-08-16T11:50:00.450Z,21.63
2022-08-16T11:52:48.918Z,16.70
2022-08-16T11:55:40.964Z,18.95
2022-08-16T11:58:34.436Z,15.45
2022-08-16T12:01:44.340Z,21.05
2022-08-16T12:04:46.251Z,13.80
2022-08-16T12:07:45.868Z,17.60
2022-08-16T12:17:05.398Z,15.32
2022-08-16T12:20:04.776Z,13.93
2022-08-16T12:22:56.804Z,17.08
2022-08-16T12:25:47.876Z,17.33
2022-08-16T12:28:56.199Z,15.35
2022-08-16T12:32:01.169Z,22.10
2022-08-16T12:34:54.060Z,16.10
2022-08-16T12:37:56.660Z,19.73
2022-08-16T12:40:53.051Z,16.55
2022-08-16T12:44:01.400Z,18.73
2022-08-16T12:47:09.197Z,16.42
2022-08-16T12:50:03.727Z,22.10
2022-08-16T12:52:56.938Z,16.80
2022-08-16T12:58:52.086Z,17.08
2022-08-16T13:01:45.836Z,15.60
2022-08-16T13:04:44.348Z,20.63
2022-08-16T13:07:42.438Z,20.23
2022-08-16T13:10:37.759Z,18.83
2022-08-16T13:13:33.414Z,16.95
2022-08-16T13:19:56.034Z,15.50
2022-08-16T13:22:48.555Z,16.10
2022-08-16T13:25:40.355Z,14.43
2022-08-16T13:29:07.756Z,19.08
2022-08-16T13:32:01.155Z,19.50
2022-08-16T13:35:06.988Z,17.25
2022-08-16T13:38:01.369Z,15.73
2022-08-16T13:40:57.582Z,14.10
2022-08-16T13:43:57.534Z,12.75
2022-08-16T13:46:54.323Z,13.50
2022-08-16T13:49:57.752Z,14.63
2022-08-16T13:52:48.853Z,14.85
2022-08-16T13:55:40.948Z,13.68
2022-08-16T13:58:55.168Z,11.80
2022-08-16T14:01:45.245Z,16.27
2022-08-16T14:04:37.899Z,13.20
2022-08-16T14:07:32.173Z,18.30
2022-08-16T14:10:25.131Z,15.60
2022-08-16T14:13:26.515Z,9.75
2022-08-16T14:16:23.840Z,16.52
2022-08-16T14:19:22.520Z,21.98
2022-08-16T14:22:34.940Z,16.70
2022-08-16T14:25:29.017Z,17.25
2022-08-16T14:28:19.782Z,16.58
2022-08-16T14:31:23.632Z,12.02
2022-08-16T14:34:13.877Z,15.80
2022-08-16T14:37:11.284Z,17.92
2022-08-16T14:39:59.206Z,20.45
2022-08-16T14:42:55.660Z,16.85
2022-08-16T14:45:43.396Z,16.95
2022-08-16T14:48:35.646Z,21.13
2022-08-16T14:51:23.702Z,18.58
2022-08-16T14:54:30.491Z,17.60
2022-08-16T14:57:21.911Z,20.80
2022-08-16T15:00:18.667Z,15.13
2022-08-16T15:03:22.788Z,21.80
2022-08-16T15:06:50.328Z,22.73
2022-08-16T15:09:44.598Z,18.10
2022-08-16T15:12:58.894Z,17.60
2022-08-16T15:16:03.823Z,13.38
2022-08-16T15:18:53.792Z,13.52
2022-08-16T15:22:05.451Z,16.10
2022-08-16T15:24:58.965Z,12.40
2022-08-16T15:27:55.448Z,13.77
2022-08-16T15:31:03.312Z,15.52
2022-08-16T15:34:02.908Z,15.38
2022-08-16T15:36:51.374Z,15.50
2022-08-16T15:39:53.870Z,16.38
2022-08-16T15:46:54.617Z,15.05
2022-08-16T15:49:37.297Z,11.52
2022-08-16T15:52:47.369Z,15.35
2022-08-16T15:55:35.729Z,10.52
2022-08-16T15:58:35.503Z,14.35
2022-08-16T16:02:39.151Z,13.25
2022-08-16T16:05:46.981Z,11.70
2022-08-16T16:12:50.124Z,10.07
2022-08-16T16:15:34.884Z,10.65
2022-08-16T16:18:26.509Z,14.40
2022-08-16T16:22:04.795Z,10.02
2022-08-16T16:24:51.735Z,8.90
2022-08-16T16:27:40.674Z,7.05
2022-08-16T16:30:45.092Z,9.02
2022-08-16T16:34:00.490Z,9.57
2022-08-16T16:36:50.359Z,14.40
2022-08-16T16:39:49.002Z,9.23
2022-08-16T16:43:02.530Z,6.70
2022-08-16T16:45:50.625Z,7.45
2022-08-16T16:48:45.898Z,10.48
2022-08-16T16:51:41.223Z,6.22
2022-08-16T16:54:32.514Z,7.60
2022-08-16T17:00:42.943Z,14.65
2022-08-16T17:03:40.617Z,6.57
2022-08-16T17:06:35.359Z,8.95
2022-08-16T17:09:32.876Z,6.75
2022-08-16T17:12:47.456Z,7.22
2022-08-16T17:15:39.885Z,7.55
2022-08-16T17:19:14.903Z,8.80
2022-08-16T17:21:39.427Z,9.15
2022-08-16T17:24:33.251Z,9.30
2022-08-16T17:27:33.816Z,9.50
2022-08-16T17:30:45.086Z,7.70
2022-08-16T17:33:54.365Z,7.57
2022-08-16T17:36:52.832Z,7.05
2022-08-16T17:40:00.097Z,7.80
2022-08-16T17:42:57.166Z,9.05
2022-08-16T17:45:48.921Z,8.70
2022-08-16T17:48:44.317Z,6.30
2022-08-16T17:51:35.148Z,9.10
2022-08-16T17:54:30.725Z,7.78
2022-08-16T17:57:23.977Z,10.90
2022-08-16T18:00:21.996Z,9.85
2022-08-16T18:06:35.959Z,8.00
2022-08-16T18:09:30.252Z,5.72
2022-08-16T18:12:54.208Z,6.55
2022-08-16T18:15:36.563Z,12.50
2022-08-16T18:18:27.922Z,5.40
2022-08-16T18:21:41.078Z,7.68
2022-08-16T18:24:29.832Z,6.55
2022-08-16T18:27:26.414Z,10.57
2022-08-16T18:30:22.059Z,8.32
2022-08-16T18:33:12.872Z,8.07
2022-08-16T18:36:01.504Z,5.95
2022-08-16T18:38:52.924Z,6.18
2022-08-16T18:41:49.499Z,7.60
2022-08-16T18:44:41.932Z,6.30
2022-08-16T18:47:32.936Z,7.38
2022-08-16T18:50:23.195Z,8.25
2022-08-16T18:53:13.821Z,9.90
2022-08-16T18:56:04.907Z,9.65
2022-08-16T18:59:01.146Z,8.75
2022-08-16T19:02:00.323Z,9.43
2022-08-16T19:05:12.496Z,9.40
2022-08-16T19:08:03.806Z,11.13
2022-08-16T19:10:53.751Z,8.82
2022-08-16T19:13:55.125Z,8.35
2022-08-16T19:16:47.409Z,12.30
2022-08-16T19:19:41.457Z,8.82
2022-08-16T19:22:59.603Z,10.17
2022-08-16T19:25:48.399Z,10.73
2022-08-16T19:28:58.354Z,10.98
2022-08-16T19:31:52.460Z,11.38
2022-08-16T19:34:42.908Z,8.30
2022-08-16T19:37:33.078Z,9.90
2022-08-16T19:40:37.444Z,7.20
2022-08-16T19:43:32.893Z,8.52
2022-08-16T19:46:33.643Z,9.95
2022-08-16T19:49:22.739Z,11.68
2022-08-16T19:52:38.529Z,12.00
2022-08-16T19:55:32.690Z,14.63
2022-08-16T19:58:26.152Z,17.30
2022-08-16T20:01:21.908Z,18.88
2022-08-16T20:04:12.889Z,19.33
2022-08-16T20:07:04.633Z,20.95
2022-08-16T20:13:02.200Z,24.20
2022-08-16T20:15:57.518Z,22.10
2022-08-16T20:18:46.667Z,25.75
2022-08-16T20:22:09.060Z,29.63
2022-08-16T20:25:11.308Z,26.05
2022-08-16T20:28:05.989Z,31.40
2022-08-16T20:30:54.418Z,30.08
2022-08-16T20:33:57.016Z,25.67
2022-08-16T20:40:28.674Z,28.73
2022-08-16T20:43:14.386Z,28.33
2022-08-16T20:46:01.866Z,25.00
2022-08-16T20:48:49.751Z,32.67
2022-08-16T20:51:49.558Z,28.50
2022-08-16T20:54:40.470Z,28.10
2022-08-16T20:57:27.617Z,30.27
2022-08-16T21:00:15.604Z,29.92
2022-08-16T21:03:13.883Z,28.15
2022-08-16T21:06:02.300Z,26.17
2022-08-16T21:08:52.287Z,27.73
2022-08-16T21:11:41.128Z,23.83
2022-08-16T21:14:29.382Z,28.67
2022-08-16T21:17:17.149Z,28.65
2022-08-16T21:20:04.782Z,29.90
2022-08-16T21:23:03.439Z,24.50
2022-08-16T21:25:58.312Z,29.40
2022-08-16T21:28:47.192Z,35.55
2022-08-16T21:31:34.739Z,25.55
2022-08-16T21:34:21.922Z,37.17
2022-08-16T21:37:09.274Z,26.92
2022-08-16T21:39:56.898Z,29.67
2022-08-16T21:42:45.148Z,32.08
2022-08-16T21:45:32.903Z,27.25
2022-08-16T21:48:33.528Z,30.48
2022-08-16T21:51:22.846Z,26.63
2022-08-16T21:54:10.444Z,24.10
2022-08-16T21:56:57.620Z,26.20
2022-08-16T21:59:44.769Z,29.52
2022-08-16T22:06:12.357Z,33.78
2022-08-16T22:12:10.231Z,30.48
2022-08-16T22:15:01.695Z,27.00
2022-08-16T22:18:29.270Z,24.38
2022-08-16T22:22:42.324Z,25.40
2022-08-16T22:25:30.224Z,28.60
2022-08-16T22:28:25.307Z,27.60
2022-08-16T22:31:16.241Z,27.20
2022-08-16T22:34:05.571Z,32.45
2022-08-16T22:36:56.851Z,26.33
2022-08-16T22:39:53.468Z,29.33
2022-08-16T22:43:03.082Z,31.38
2022-08-16T22:45:51.739Z,32.70
2022-08-16T22:48:42.645Z,34.78
2022-08-16T22:51:33.831Z,32.08
2022-08-16T22:54:47.429Z,31.08
2022-08-16T22:57:44.968Z,29.02
2022-08-16T23:00:43.173Z,28.67
2022-08-16T23:03:33.563Z,37.25
2022-08-16T23:06:22.504Z,35.60
2022-08-16T23:09:26.618Z,33.70
2022-08-16T23:12:29.165Z,32.63
2022-08-16T23:15:27.760Z,28.58
2022-08-16T23:18:27.032Z,30.92
2022-08-16T23:21:34.135Z,27.25
2022-08-16T23:24:56.284Z,30.17
2022-08-16T23:27:54.258Z,28.55
2022-08-16T23:30:56.292Z,26.77
2022-08-16T23:33:55.732Z,30.08
2022-08-16T23:36:49.984Z,28.75
2022-08-16T23:39:49.318Z,27.23
2022-08-16T23:43:01.844Z,27.38
2022-08-16T23:45:55.488Z,30.48
2022-08-16T23:49:44.978Z,26.38
2022-08-16T23:52:04.063Z,24.42
2022-08-16T23:55:04.734Z,24.77
2022-08-16T23:58:08.086Z,23.27
